Time;durP1;ratioP1;P1;durP2;ratioP2;P2;SDS_P1;SDS_P2;PMS_P1;PMS_P2;Temp;Humidity;BMP_temperature;BMP_pressure;BME280_temperature;BME280_humidity;BME280_pressure;Samples;Min_cycle;Max_cycle;Signal;HPM_P1;HPM_P2
2022/11/07 21:00:23;;;;;;;;;9.25;7.75;;;;;18.12;59.41;100702.22;5072895;28;45304;-57
2022/11/07 21:02:48;;;;;;;;;16.00;9.00;;;;;17.61;60.69;100707.03;5054337;28;45360;-57
2022/11/07 21:05:13;;;;;;;;;12.25;7.00;;;;;17.22;61.69;100716.31;5035772;28;45482;-58
2022/11/07 21:07:39;;;;;;;;;8.00;7.25;;;;;16.91;62.57;100717.72;5035692;28;52234;-59
2022/11/07 21:10:05;;;;;;;;;7.25;7.00;;;;;16.62;63.36;100708.09;5036414;28;45572;-58
2022/11/07 21:12:31;;;;;;;;;8.25;8.25;;;;;16.43;64.28;100704.94;5035466;28;45379;-59
2022/11/07 21:14:56;;;;;;;;;8.50;8.25;;;;;16.20;64.92;100715.53;5035612;28;45529;-57
2022/11/07 21:17:21;;;;;;;;;9.00;9.00;;;;;16.00;65.56;100713.34;5034929;28;45366;-57
2022/11/07 21:19:46;;;;;;;;;8.50;8.50;;;;;15.87;66.16;100704.34;5035353;28;45416;-59
2022/11/07 21:22:12;;;;;;;;;9.00;8.00;;;;;15.73;66.46;100709.84;5035156;28;45270;-58
2022/11/07 21:24:37;;;;;;;;;7.25;7.25;;;;;15.62;66.95;100701.59;5035512;28;45233;-58
2022/11/07 21:27:04;;;;;;;;;7.75;7.75;;;;;15.46;67.22;100690.91;5034866;28;51871;-58
2022/11/07 21:29:31;;;;;;;;;8.75;8.75;;;;;15.27;67.32;100669.66;5035938;28;45418;-58
2022/11/07 21:31:56;;;;;;;;;9.00;8.00;;;;;15.27;67.98;100695.78;5034838;28;45370;-56
2022/11/07 21:34:21;;;;;;;;;8.75;7.25;;;;;15.13;68.33;100683.22;5035325;28;45311;-59
2022/11/07 21:36:47;;;;;;;;;14.75;10.75;;;;;15.04;68.52;100694.59;5034130;28;53195;-58
2022/11/07 21:39:13;;;;;;;;;9.75;8.50;;;;;15.03;68.82;100698.28;5034085;28;46259;-58
2022/11/07 21:41:38;;;;;;;;;12.50;10.00;;;;;14.98;68.67;100695.84;5034928;28;45352;-58
2022/11/07 21:44:03;;;;;;;;;11.50;9.75;;;;;14.97;68.74;100691.41;5035007;28;45361;-58
2022/11/07 21:46:30;;;;;;;;;10.50;10.25;;;;;14.92;69.17;100698.97;5034416;28;45306;-58
2022/11/07 21:48:57;;;;;;;;;10.00;10.00;;;;;14.87;69.44;100695.69;5034446;28;46287;-57
2022/11/07 21:51:25;;;;;;;;;11.00;11.00;;;;;14.81;69.68;100693.38;5034771;28;45358;-58
2022/11/07 21:53:51;;;;;;;;;12.75;11.75;;;;;14.77;69.89;100681.06;5034837;28;45304;-57
2022/11/07 21:56:26;;;;;;;;;10.00;7.75;;;;;14.79;69.69;100687.22;5034393;28;45474;-57
2022/11/07 21:58:57;;;;;;;;;10.50;10.50;;;;;14.74;70.20;100673.16;5042267;28;45389;-55
2022/11/07 22:01:24;;;;;;;;;10.25;10.00;;;;;14.68;70.12;100673.56;5054158;28;45273;-57
2022/11/07 22:03:51;;;;;;;;;12.50;9.50;;;;;14.70;69.90;100666.22;5045103;28;45337;-57
2022/11/07 22:06:18;;;;;;;;;12.00;12.00;;;;;14.64;69.98;100661.19;5050666;28;45422;-56
2022/11/07 22:08:48;;;;;;;;;11.75;10.00;;;;;14.65;70.12;100662.94;5054616;28;46131;-58
2022/11/07 22:11:15;;;;;;;;;14.75;11.75;;;;;14.61;70.07;100658.72;5035036;28;45486;-58
2022/11/07 22:13:40;;;;;;;;;10.75;10.75;;;;;14.60;70.08;100655.16;5040611;28;45390;-57
2022/11/07 22:16:10;;;;;;;;;10.75;10.50;;;;;14.53;70.47;100650.25;5039033;28;45873;-56
2022/11/07 22:18:35;;;;;;;;;11.00;10.00;;;;;14.49;70.04;100649.56;5040630;28;45363;-58
2022/11/07 22:21:02;;;;;;;;;12.25;11.00;;;;;14.48;70.71;100645.13;5037253;28;45337;-57
2022/11/07 22:23:35;;;;;;;;;9.50;8.50;;;;;14.39;70.77;100626.84;5031970;28;45284;-56
2022/11/07 22:26:02;;;;;;;;;11.50;9.75;;;;;14.45;70.64;100639.09;5040918;28;45636;-57
2022/11/07 22:28:27;;;;;;;;;11.25;11.25;;;;;14.37;70.98;100626.06;5040914;28;45412;-57
2022/11/07 22:30:52;;;;;;;;;8.75;8.75;;;;;14.42;71.13;100639.28;5040602;28;45343;-57
2022/11/07 22:33:17;;;;;;;;;12.25;12.25;;;;;14.37;71.30;100642.25;5041026;28;45370;-58
2022/11/07 22:35:43;;;;;;;;;12.25;11.00;;;;;14.34;70.87;100627.09;5040279;28;50215;-56
2022/11/07 22:38:08;;;;;;;;;14.25;10.25;;;;;14.28;71.22;100622.09;5040441;28;45510;-55
2022/11/07 22:40:33;;;;;;;;;12.00;10.00;;;;;14.30;71.38;100614.75;5040371;28;45331;-55
2022/11/07 22:42:59;;;;;;;;;11.25;10.25;;;;;14.25;71.08;100610.63;5040764;28;45285;-57
2022/11/07 22:45:24;;;;;;;;;11.50;8.75;;;;;14.31;71.26;100623.72;5040262;28;45424;-58
2022/11/07 22:47:49;;;;;;;;;12.50;9.75;;;;;14.27;71.48;100619.50;5040007;28;54777;-57
2022/11/07 22:50:15;;;;;;;;;7.50;7.50;;;;;14.26;71.46;100609.69;5040122;28;48810;-56
2022/11/07 22:52:40;;;;;;;;;8.50;8.50;;;;;14.21;71.26;100604.56;5040873;28;45764;-55
2022/11/07 22:55:06;;;;;;;;;9.00;9.00;;;;;14.21;71.46;100599.16;5039696;28;54800;-57
2022/11/07 22:57:31;;;;;;;;;9.50;8.50;;;;;14.11;71.42;100575.59;5040231;28;46021;-57
2022/11/07 22:59:56;;;;;;;;;8.00;8.00;;;;;14.22;71.24;100597.34;5040185;28;45307;-57
2022/11/07 23:02:22;;;;;;;;;9.00;7.00;;;;;14.22;71.28;100592.81;5040038;28;45434;-58
2022/11/07 23:04:47;;;;;;;;;9.50;9.25;;;;;14.17;71.29;100578.78;5025096;28;45362;-58
2022/11/07 23:07:13;;;;;;;;;9.25;8.00;;;;;14.22;71.58;100589.25;5039995;28;46062;-57
2022/11/07 23:09:38;;;;;;;;;11.50;11.50;;;;;14.18;71.58;100577.81;5040283;28;45220;-57
2022/11/07 23:12:04;;;;;;;;;11.25;9.50;;;;;14.17;71.34;100580.59;5031672;28;45414;-57
2022/11/07 23:14:30;;;;;;;;;7.75;7.75;;;;;14.02;71.45;100563.56;5039872;28;45565;-56
2022/11/07 23:16:56;;;;;;;;;11.00;9.00;;;;;14.13;71.47;100576.34;5037950;28;46087;-57
2022/11/07 23:19:23;;;;;;;;;9.50;9.50;;;;;14.09;71.36;100578.38;5039908;28;45224;-56
2022/11/07 23:21:51;;;;;;;;;11.25;9.75;;;;;14.08;71.62;100576.66;5039213;28;45419;-56
2022/11/07 23:24:16;;;;;;;;;9.50;9.50;;;;;14.02;71.50;100571.66;5039460;28;45539;-57
2022/11/07 23:26:42;;;;;;;;;8.50;8.50;;;;;13.99;71.55;100561.06;5040019;28;45372;-57
2022/11/07 23:29:18;;;;;;;;;9.25;9.25;;;;;14.00;71.47;100554.72;5039790;28;45317;-56
2022/11/07 23:31:45;;;;;;;;;13.25;12.00;;;;;13.98;71.74;100562.88;5039852;28;45285;-56
2022/11/07 23:34:11;;;;;;;;;10.50;9.00;;;;;13.97;71.60;100563.84;5039799;28;45379;-56
2022/11/07 23:36:42;;;;;;;;;9.25;7.75;;;;;13.96;71.77;100558.53;5039675;28;45354;-57
2022/11/07 23:39:11;;;;;;;;;10.00;10.00;;;;;13.81;72.00;100537.94;5039422;28;45340;-58
2022/11/07 23:41:36;;;;;;;;;9.75;7.75;;;;;13.92;71.72;100549.81;5038136;28;45281;-57
2022/11/07 23:44:02;;;;;;;;;8.50;8.50;;;;;13.90;71.69;100554.41;5039489;28;45557;-57
2022/11/07 23:51:55;;;;;;;;;10.00;9.00;;;;;13.87;71.49;100535.72;5039610;28;45333;-58
2022/11/07 23:57:04;;;;;;;;;11.25;9.50;;;;;13.83;71.68;100518.03;5039282;28;45778;-57
